createdAt,value
2019-05-25T00:00:51.972Z,3.84
2019-05-25T00:05:59.567Z,4.09
2019-05-25T00:11:07.197Z,4.08
2019-05-25T00:16:14.827Z,4.20
2019-05-25T00:21:22.437Z,4.34
2019-05-25T00:26:30.037Z,3.91
2019-05-25T00:31:37.687Z,3.89
2019-05-25T00:36:45.271Z,3.85
2019-05-25T00:41:52.928Z,3.58
2019-05-25T00:47:00.533Z,3.27
2019-05-25T00:52:08.208Z,3.29
2019-05-25T00:57:15.751Z,3.76
2019-05-25T01:02:23.378Z,3.65
2019-05-25T01:07:30.956Z,3.60
2019-05-25T01:12:38.614Z,3.65
2019-05-25T01:17:46.199Z,4.02
2019-05-25T01:22:53.835Z,4.16
2019-05-25T01:28:01.420Z,3.66
2019-05-25T01:33:09.041Z,3.81
2019-05-25T01:38:16.641Z,3.95
2019-05-25T01:43:24.303Z,4.20
2019-05-25T01:48:31.899Z,4.20
2019-05-25T01:53:39.522Z,4.50
2019-05-25T01:58:47.126Z,4.36
2019-05-25T02:03:54.768Z,4.24
2019-05-25T02:09:02.378Z,4.44
2019-05-25T02:14:10.047Z,4.81
2019-05-25T02:19:17.664Z,5.23
2019-05-25T02:24:25.302Z,5.42
2019-05-25T02:29:32.916Z,4.69
2019-05-25T02:34:40.598Z,4.91
2019-05-25T02:39:48.196Z,5.56
2019-05-25T02:44:55.886Z,5.45
2019-05-25T02:50:03.474Z,5.54
2019-05-25T02:55:11.121Z,5.41
2019-05-25T03:00:18.574Z,5.53
2019-05-25T03:05:26.249Z,5.62
2019-05-25T03:10:33.846Z,5.78
2019-05-25T03:15:41.508Z,6.10
2019-05-25T03:20:49.075Z,6.49
2019-05-25T03:25:56.712Z,6.55
2019-05-25T03:31:04.318Z,7.20
2019-05-25T03:36:11.944Z,7.43
2019-05-25T03:41:19.554Z,8.25
2019-05-25T03:46:27.233Z,8.39
2019-05-25T03:51:34.818Z,8.28
2019-05-25T03:56:42.478Z,8.03
2019-05-25T04:01:50.085Z,9.08
2019-05-25T04:06:57.791Z,8.14
2019-05-25T04:12:05.384Z,8.82
2019-05-25T04:17:13.076Z,8.40
2019-05-25T04:22:20.690Z,7.82
2019-05-25T04:27:28.326Z,7.20
2019-05-25T04:32:35.944Z,7.23
2019-05-25T04:37:43.556Z,7.61
2019-05-25T04:42:51.142Z,6.88
2019-05-25T04:47:58.805Z,6.95
2019-05-25T04:53:06.388Z,6.82
2019-05-25T04:58:14.055Z,6.95
2019-05-25T05:03:21.632Z,6.74
2019-05-25T05:08:29.279Z,5.87
2019-05-25T05:13:36.901Z,5.45
2019-05-25T05:18:44.566Z,5.77
2019-05-25T05:23:52.187Z,5.86
2019-05-25T05:28:59.843Z,5.53
2019-05-25T05:34:07.436Z,5.93
2019-05-25T05:39:15.114Z,5.87
2019-05-25T05:44:22.707Z,6.09
2019-05-25T05:49:30.362Z,6.28
2019-05-25T05:54:37.961Z,5.90
2019-05-25T05:59:45.606Z,6.67
2019-05-25T06:04:53.199Z,5.72
2019-05-25T06:10:00.905Z,5.92
2019-05-25T06:15:08.503Z,5.85
2019-05-25T06:20:16.180Z,5.62
2019-05-25T06:25:23.775Z,6.41
2019-05-25T06:30:31.405Z,5.90
2019-05-25T06:35:39.039Z,5.53
2019-05-25T06:40:46.654Z,5.85
2019-05-25T06:45:54.254Z,5.28
2019-05-25T06:51:01.949Z,5.97
2019-05-25T06:56:09.570Z,5.21
2019-05-25T07:01:17.218Z,6.46
2019-05-25T07:06:24.818Z,5.91
2019-05-25T07:11:32.439Z,6.32
2019-05-25T07:16:40.025Z,6.15
2019-05-25T07:21:47.687Z,5.92
2019-05-25T07:26:55.302Z,6.84
2019-05-25T07:32:03.153Z,6.42
2019-05-25T07:37:10.738Z,7.96
2019-05-25T07:42:20.065Z,7.13
2019-05-25T07:47:25.471Z,6.53
2019-05-25T07:52:33.118Z,7.04
2019-05-25T07:57:40.696Z,7.32
2019-05-25T08:02:48.179Z,6.72
2019-05-25T08:07:55.756Z,6.53
2019-05-25T08:13:03.404Z,7.48
2019-05-25T08:18:10.987Z,7.30
2019-05-25T08:23:18.758Z,7.51
2019-05-25T08:28:32.605Z,6.83
2019-05-25T08:33:33.537Z,8.34
2019-05-25T08:38:41.207Z,8.09
2019-05-25T08:43:48.801Z,8.67
2019-05-25T08:48:56.400Z,6.09
2019-05-25T08:54:04.054Z,6.43
2019-05-25T08:59:11.645Z,6.99
2019-05-25T09:04:19.386Z,6.54
2019-05-25T09:09:26.965Z,6.15
2019-05-25T09:14:34.653Z,6.49
2019-05-25T09:19:42.242Z,6.09
2019-05-25T09:24:49.873Z,5.73
2019-05-25T09:29:57.464Z,5.18
2019-05-25T09:35:05.299Z,5.17
2019-05-25T09:40:12.881Z,5.06
2019-05-25T09:45:20.504Z,4.79
2019-05-25T09:50:28.088Z,4.17
2019-05-25T09:55:35.758Z,4.56
2019-05-25T10:00:43.338Z,3.99
2019-05-25T10:05:50.960Z,4.32
2019-05-25T10:10:58.548Z,4.19
2019-05-25T10:16:06.254Z,4.07
2019-05-25T10:21:15.077Z,4.32
2019-05-25T10:26:23.049Z,4.14
2019-05-25T10:31:28.167Z,4.16
2019-05-25T10:36:35.879Z,4.52
2019-05-25T10:41:43.478Z,4.29
2019-05-25T10:46:51.112Z,4.18
2019-05-25T10:51:58.722Z,3.83
2019-05-25T10:57:06.343Z,4.09
2019-05-25T11:02:13.973Z,4.15
2019-05-25T11:07:21.638Z,4.21
2019-05-25T11:12:29.240Z,3.92
2019-05-25T11:17:36.913Z,3.83
2019-05-25T11:22:44.506Z,4.13
2019-05-25T11:27:52.146Z,4.43
2019-05-25T11:32:59.754Z,4.14
2019-05-25T11:38:07.391Z,4.04
2019-05-25T11:43:15.014Z,4.05
2019-05-25T11:48:22.675Z,4.00
2019-05-25T11:53:30.270Z,4.18
2019-05-25T11:58:46.877Z,3.97
2019-05-25T12:03:45.052Z,4.40
2019-05-25T12:08:52.683Z,4.79
2019-05-25T12:14:00.266Z,4.82
2019-05-25T12:19:07.951Z,4.96
2019-05-25T12:24:15.543Z,4.47
2019-05-25T12:29:23.191Z,4.21
2019-05-25T12:34:30.774Z,4.51
2019-05-25T12:39:38.449Z,4.10
2019-05-25T12:44:46.040Z,4.53
2019-05-25T12:49:53.704Z,4.44
2019-05-25T12:55:01.301Z,4.21
2019-05-25T13:00:15.918Z,4.79
2019-05-25T13:05:16.020Z,4.20
2019-05-25T13:10:23.639Z,4.80
2019-05-25T13:15:31.248Z,5.57
2019-05-25T13:20:38.898Z,5.65
2019-05-25T13:25:46.505Z,5.69
2019-05-25T13:30:54.181Z,5.27
2019-05-25T13:36:01.788Z,5.13
2019-05-25T13:41:09.426Z,5.97
2019-05-25T13:46:17.016Z,5.63
2019-05-25T13:51:24.753Z,5.70
2019-05-25T13:56:32.345Z,5.85
2019-05-25T14:01:40.141Z,5.83
2019-05-25T14:06:47.738Z,5.36
2019-05-25T14:11:55.375Z,4.74
2019-05-25T14:17:02.973Z,5.71
2019-05-25T14:22:10.609Z,6.00
2019-05-25T14:27:18.205Z,4.72
2019-05-25T14:32:25.884Z,5.00
2019-05-25T14:37:33.498Z,5.07
2019-05-25T14:42:41.160Z,4.41
2019-05-25T14:47:48.751Z,4.24
2019-05-25T14:52:56.403Z,4.21
2019-05-25T14:58:04.003Z,4.06
2019-05-25T15:03:11.877Z,4.11
2019-05-25T15:08:19.493Z,4.01
2019-05-25T15:13:27.112Z,4.44
2019-05-25T15:18:34.711Z,3.84
2019-05-25T15:23:42.383Z,3.58
2019-05-25T15:28:49.985Z,3.76
2019-05-25T15:33:57.657Z,3.83
2019-05-25T15:39:05.244Z,4.08
2019-05-25T15:44:12.907Z,3.89
2019-05-25T15:49:20.479Z,3.97
2019-05-25T15:54:28.149Z,3.97
2019-05-25T15:59:35.751Z,3.93
2019-05-25T16:04:43.356Z,3.73
2019-05-25T16:09:50.963Z,3.61
2019-05-25T16:14:58.625Z,3.92
2019-05-25T16:20:06.219Z,3.84
2019-05-25T16:25:13.829Z,3.76
2019-05-25T16:30:21.419Z,3.70
2019-05-25T16:35:29.031Z,3.67
2019-05-25T16:40:36.620Z,3.61
2019-05-25T16:45:44.389Z,3.86
2019-05-25T16:50:52.003Z,3.77
2019-05-25T16:55:59.651Z,3.75
2019-05-25T17:01:07.235Z,3.68
2019-05-25T17:06:14.865Z,3.80
2019-05-25T17:11:22.461Z,3.62
2019-05-25T17:16:30.087Z,3.83
2019-05-25T17:21:37.693Z,3.69
2019-05-25T17:26:45.470Z,3.91
2019-05-25T17:31:53.077Z,3.69
2019-05-25T17:37:00.724Z,3.66
2019-05-25T17:42:08.363Z,3.66
2019-05-25T17:47:16.051Z,4.00
2019-05-25T17:52:23.666Z,4.01
2019-05-25T17:57:31.334Z,4.21
2019-05-25T18:02:38.920Z,4.28
2019-05-25T18:07:46.550Z,4.05
2019-05-25T18:12:54.129Z,4.24
2019-05-25T18:18:01.817Z,3.70
2019-05-25T18:23:09.414Z,3.45
2019-05-25T18:28:17.115Z,3.16
2019-05-25T18:33:24.722Z,3.31
2019-05-25T18:38:32.405Z,3.34
2019-05-25T18:43:40.025Z,3.25
2019-05-25T18:48:47.683Z,3.26
2019-05-25T18:53:55.293Z,3.27
2019-05-25T18:59:02.981Z,3.27
2019-05-25T19:04:10.589Z,3.26
2019-05-25T19:09:18.222Z,3.26
2019-05-25T19:14:25.863Z,2.88
2019-05-25T19:19:33.548Z,3.17
2019-05-25T19:24:41.146Z,3.22
2019-05-25T19:29:48.890Z,3.39
2019-05-25T19:34:59.827Z,3.55
2019-05-25T19:40:08.580Z,3.51
2019-05-25T19:45:10.964Z,3.24
2019-05-25T19:50:18.579Z,3.77
2019-05-25T19:55:26.171Z,3.61
2019-05-25T20:00:33.813Z,3.79
2019-05-25T20:05:41.438Z,3.82
2019-05-25T20:10:49.088Z,4.11
2019-05-25T20:15:56.670Z,3.78
2019-05-25T20:21:04.362Z,3.49
2019-05-25T20:26:11.955Z,4.15
2019-05-25T20:31:19.653Z,4.24
2019-05-25T20:36:27.282Z,4.04
2019-05-25T20:41:34.932Z,4.15
2019-05-25T20:46:42.545Z,4.22
2019-05-25T20:51:50.203Z,3.97
2019-05-25T20:56:57.802Z,4.11
2019-05-25T21:02:05.461Z,4.12
2019-05-25T21:07:13.054Z,4.35
2019-05-25T21:12:20.675Z,4.46
2019-05-25T21:17:28.294Z,4.45
2019-05-25T21:22:35.957Z,4.57
2019-05-25T21:27:43.539Z,4.61
2019-05-25T21:32:51.215Z,4.56
2019-05-25T21:37:58.810Z,4.53
2019-05-25T21:43:06.474Z,4.80
2019-05-25T21:48:14.077Z,4.97
2019-05-25T21:53:21.832Z,4.96
2019-05-25T21:58:29.417Z,4.56
2019-05-25T22:03:37.088Z,4.88
2019-05-25T22:08:44.693Z,4.62
2019-05-25T22:13:52.322Z,4.96
2019-05-25T22:18:59.931Z,4.69
2019-05-25T22:24:07.593Z,4.73
2019-05-25T22:29:15.184Z,4.90
2019-05-25T22:34:22.877Z,4.92
2019-05-25T22:39:30.504Z,4.66
2019-05-25T22:44:38.121Z,5.06
2019-05-25T22:49:45.721Z,4.50
2019-05-25T22:54:55.063Z,4.32
2019-05-25T23:00:02.673Z,4.14
2019-05-25T23:05:10.288Z,4.33
2019-05-25T23:10:17.889Z,3.99
2019-05-25T23:15:25.584Z,3.81
2019-05-25T23:20:36.415Z,3.93
2019-05-25T23:25:40.359Z,3.67
2019-05-25T23:30:47.964Z,3.67
2019-05-25T23:35:55.650Z,3.84
2019-05-25T23:41:03.239Z,3.50
2019-05-25T23:46:10.918Z,3.77
2019-05-25T23:51:18.537Z,4.10
2019-05-25T23:56:26.211Z,3.62
